KMPZ/MPZ METAR and TAF weather

Enter ICAO airport designator
Station Type Date Time Source
KMPZ METAR 2020/03/31 11:55 UTC NOAA

KMPZ 311155Z AUTO 02007KT 10SM CLR 03/01 A3005 RMK AO2


Station Type Date Time Source
KMPZ Decoded METAR 2020/03/31 11:55 UTC NOAA

Mount Pleasant, Mount Pleasant Municipal Airport, IA, United States (KMPZ) 40-56-48N 091-30-40W
Mar 31, 2020 - 07:55 AM EDT / 2020.03.31 1155 UTC
Wind: from the NNE (020 degrees) at 8 MPH (7 KT):0
Visibility: 10 mile(s):0
Sky conditions: clear
Temperature: 37 F (3 C)
Dew Point: 33 F (1 C)
Relative Humidity: 86%
Pressure (altimeter): 30.05 in. Hg (1017 hPa)
ob: KMPZ 311155Z AUTO 02007KT 10SM CLR 03/01 A3005 RMK AO2
cycle: 12

Station Type Date Time Source
KMPZ TAF UTC NOAA

Error!

Example: see airport list